Airfield :
LOGIN :

Register | Disclaimer

   EN    FR    IT 

 










Legend :    VFR   Marginal VFR   IFR   Intensive IFR   Very Intensive IFR
Visi :
Ceiling :
>= 8 km
>= 3000ft
5 to 8 km
1000 to 3000 ft
1500m to 5 km
500 to 1000 ft
800 to 1500m
200 to 500 ft
< 800m
< 200 ft
Symbols :   Thunderstorms  Fog  Heavy snow  Heavy precipitations  Wind > 20 kt
SIGMETs :     Misc.  Thunderstorms  Icing  Turbulence  Mountain Waves  Volcanic Ashes







- Airport Elevation : 160 ft
- IATA code : FMO


EDDG - Münster Osnabrück Int.

CURRENT METAR :
  • 200020Z 19004KT 160V230 9999 FEW042 17/16 Q1008 NOSIG

EXPIRED METARs :
  • 192350Z 17003KT 120V200 CAVOK 17/16 Q1008 NOSIG
  • 192320Z 22004KT 190V250 CAVOK 17/16 Q1008 NOSIG
  • 192250Z 21004KT 160V240 CAVOK 17/15 Q1008 NOSIG
  • 192220Z 18004KT 140V240 CAVOK 17/15 Q1008 NOSIG
  • 192150Z 16005KT 130V200 CAVOK 17/15 Q1008 NOSIG

TAF TAF EDDG
Valid from the 20 at 00:00 until the 21 at 00:00 UTC


192300Z 2000/2024 22005KT 9999 FEW025
TEMPO 2003/2008 BKN010
BECMG 2005/2008 25010KT
PROB30
TEMPO 2012/2018 27015G25KT TSRA BKN025CB
BECMG 2018/2021 VRB03KT
No reported NOTAMs for that airfield.
3 SIGMETs reported for the Langen FIR (EDGG) :
 
Frequent thunderstorms
EDGG SIGMET 4 VALID 192300/200030 EDZF
EDGG LANGEN FIR FRQ TS FCST APRX 35NM WID LINE BTN N4936 E00730 - N4908 E00846 - N4845 E00937 TOP FL390 MOV NNE NC=
SIGMET 4  cancelation
EDGG SIGMET 2 VALID 200006/200030 EDZF
EDGG LANGEN FIR CNL SIGMET 4 192300/200030=
Embedded thunderstorms
EDGG SIGMET 1 VALID 200003/200130 EDZF
EDGG LANGEN FIR EMBD TS FCST WI N5016 E00916 - N4926 E01059 - N4907 E01026 - N4846 E00942 - N4936 E00811 - N5016 E00916 TOP FL380 MOV NNE NC=



MET'MAP, your aeronautical weather chart ! - Copyright ORBIFLY December 2007 - Disclaimer

ORBIFLY MET'MAP TEAM :

Programming & Development : Alexandra Zaïnal
Concept & Development : Baudouin d'Aumeries
Co-Development & Prog : Marc-Olivier Méhu
Technical & hardware support : Manuel Goepfert

Contact : metmap@orbifly.com




SOURCES & CREDITS :

   NOAA